createdAt,value
2018-07-06T00:02:09.654Z,17.70
2018-07-06T00:04:54.361Z,17.60
2018-07-06T00:07:34.770Z,17.70
2018-07-06T00:10:14.224Z,17.70
2018-07-06T00:12:53.492Z,17.60
2018-07-06T00:15:32.807Z,17.60
2018-07-06T00:18:11.901Z,17.60
2018-07-06T00:20:51.106Z,17.70
2018-07-06T00:23:30.452Z,17.60
2018-07-06T00:26:09.751Z,17.70
2018-07-06T00:28:49.334Z,17.70
2018-07-06T00:31:28.586Z,17.70
2018-07-06T00:34:08.126Z,17.70
2018-07-06T00:36:47.591Z,17.60
2018-07-06T00:39:26.768Z,17.60
2018-07-06T00:42:06.373Z,17.60
2018-07-06T00:44:45.655Z,17.70
2018-07-06T00:47:24.844Z,17.70
2018-07-06T00:50:04.098Z,17.70
2018-07-06T00:52:43.940Z,17.60
2018-07-06T00:55:23.296Z,17.60
2018-07-06T00:58:02.597Z,17.60
2018-07-06T01:00:41.716Z,17.60
2018-07-06T01:03:21.008Z,17.50
2018-07-06T01:06:00.383Z,17.50
2018-07-06T01:08:39.570Z,17.40
2018-07-06T01:11:18.913Z,17.40
2018-07-06T01:13:59.328Z,17.40
2018-07-06T01:16:38.526Z,17.40
2018-07-06T01:19:17.856Z,17.30
2018-07-06T01:21:56.992Z,17.30
2018-07-06T01:24:36.307Z,17.30
2018-07-06T01:29:49.111Z,17.30
2018-07-06T01:32:29.218Z,17.20
2018-07-06T01:35:08.464Z,17.20
2018-07-06T01:37:47.733Z,17.20
2018-07-06T01:40:27.088Z,17.20
2018-07-06T01:43:06.612Z,17.20
2018-07-06T01:45:45.905Z,17.10
2018-07-06T01:48:25.156Z,17.10
2018-07-06T01:51:04.306Z,17.10
2018-07-06T01:53:43.590Z,17.10
2018-07-06T01:56:23.911Z,17.10
2018-07-06T01:59:03.327Z,17.10
2018-07-06T02:01:43.984Z,17.10
2018-07-06T02:04:23.391Z,17.00
2018-07-06T02:07:02.969Z,17.00
2018-07-06T02:09:42.171Z,17.10
2018-07-06T02:12:21.476Z,17.10
2018-07-06T02:15:00.671Z,17.00
2018-07-06T02:17:39.862Z,17.00
2018-07-06T02:20:19.267Z,17.00
2018-07-06T02:22:58.738Z,17.00
2018-07-06T02:25:38.051Z,17.00
2018-07-06T02:28:17.361Z,17.00
2018-07-06T02:30:56.620Z,17.00
2018-07-06T02:33:35.780Z,17.00
2018-07-06T02:36:14.997Z,17.00
2018-07-06T02:38:54.267Z,17.00
2018-07-06T02:41:33.291Z,17.00
2018-07-06T02:44:12.687Z,17.10
2018-07-06T02:46:51.871Z,17.00
2018-07-06T02:49:31.199Z,17.10
2018-07-06T02:52:10.599Z,17.10
2018-07-06T02:54:49.992Z,17.10
2018-07-06T02:57:29.248Z,17.10
2018-07-06T03:00:08.412Z,17.10
2018-07-06T03:02:47.510Z,17.10
2018-07-06T03:05:26.896Z,17.10
2018-07-06T03:08:06.143Z,17.10
2018-07-06T03:10:45.363Z,17.10
2018-07-06T03:13:24.617Z,17.20
2018-07-06T03:16:03.756Z,17.20
2018-07-06T03:18:42.856Z,17.30
2018-07-06T03:21:22.163Z,17.30
2018-07-06T03:24:01.469Z,17.30
2018-07-06T03:26:40.700Z,17.40
2018-07-06T03:29:20.040Z,17.40
2018-07-06T03:31:59.355Z,17.40
2018-07-06T03:34:38.730Z,17.40
2018-07-06T03:37:18.241Z,17.50
2018-07-06T03:39:57.514Z,17.50
2018-07-06T03:42:36.848Z,17.50
2018-07-06T03:45:16.021Z,17.50
2018-07-06T03:47:55.230Z,17.50
2018-07-06T03:50:34.420Z,17.50
2018-07-06T03:53:13.550Z,17.50
2018-07-06T03:55:52.803Z,17.50
2018-07-06T03:58:31.993Z,17.50
2018-07-06T04:01:11.283Z,17.40
2018-07-06T04:03:51.584Z,17.40
2018-07-06T04:06:30.838Z,17.40
2018-07-06T04:09:09.982Z,17.40
2018-07-06T04:11:49.382Z,17.40
2018-07-06T04:14:28.550Z,17.50
2018-07-06T04:17:07.790Z,17.50
2018-07-06T04:19:46.969Z,17.50
2018-07-06T04:22:30.431Z,17.60
2018-07-06T04:25:09.486Z,17.60
2018-07-06T04:27:48.690Z,17.60
2018-07-06T04:30:27.649Z,17.80
2018-07-06T04:33:06.743Z,17.80
2018-07-06T04:35:45.845Z,17.80
2018-07-06T04:38:25.593Z,17.80
2018-07-06T04:41:04.796Z,18.00
2018-07-06T04:43:43.938Z,17.80
2018-07-06T04:48:56.589Z,17.80
2018-07-06T04:51:35.781Z,17.90
2018-07-06T04:54:14.993Z,17.90
2018-07-06T04:56:54.477Z,18.00
2018-07-06T04:59:33.497Z,17.90
2018-07-06T05:02:12.384Z,17.80
2018-07-06T05:04:51.519Z,18.00
2018-07-06T05:07:30.631Z,17.90
2018-07-06T05:10:09.606Z,17.90
2018-07-06T05:12:48.606Z,17.90
2018-07-06T05:15:27.826Z,17.90
2018-07-06T05:20:40.294Z,17.90
2018-07-06T05:23:19.296Z,17.90
2018-07-06T05:25:58.524Z,17.90
2018-07-06T05:28:37.675Z,17.80
2018-07-06T05:31:16.906Z,17.90
2018-07-06T05:33:55.920Z,17.70
2018-07-06T05:36:35.157Z,17.70
2018-07-06T05:39:14.594Z,17.60
2018-07-06T05:41:53.556Z,17.40
2018-07-06T05:44:32.726Z,17.30
2018-07-06T05:47:11.964Z,17.20
2018-07-06T05:49:51.140Z,17.10
2018-07-06T05:52:30.335Z,17.10
2018-07-06T05:57:43.412Z,17.10
2018-07-06T06:00:22.590Z,17.20
2018-07-06T06:03:02.572Z,17.20
2018-07-06T06:05:41.940Z,17.20
2018-07-06T06:08:08.675Z,17.10
2018-07-06T06:10:36.757Z,17.10
2018-07-06T06:13:04.987Z,17.00
2018-07-06T06:15:33.052Z,16.90
2018-07-06T06:18:01.220Z,17.10
2018-07-06T06:20:29.885Z,17.00
2018-07-06T06:22:58.028Z,17.00
2018-07-06T06:25:27.205Z,17.00
2018-07-06T06:27:55.405Z,17.10
2018-07-06T06:30:23.478Z,17.10
2018-07-06T06:32:51.695Z,17.00
2018-07-06T06:35:22.131Z,17.00
2018-07-06T06:37:50.746Z,17.00
2018-07-06T06:40:18.929Z,17.00
2018-07-06T06:42:47.021Z,17.00
2018-07-06T06:45:15.692Z,17.00
2018-07-06T06:47:44.128Z,17.00
2018-07-06T06:50:16.455Z,17.00
2018-07-06T06:52:45.178Z,17.10
2018-07-06T06:55:13.464Z,17.20
2018-07-06T06:57:41.893Z,17.20
2018-07-06T07:00:15.356Z,17.30
2018-07-06T07:02:46.537Z,17.40
2018-07-06T07:05:16.629Z,17.40
2018-07-06T07:07:45.047Z,17.40
2018-07-06T07:10:18.114Z,17.40
2018-07-06T07:12:51.100Z,17.40
2018-07-06T07:15:21.113Z,17.60
2018-07-06T07:17:49.314Z,17.70
2018-07-06T07:20:25.920Z,17.90
2018-07-06T07:22:57.034Z,18.10
2018-07-06T07:25:27.506Z,18.30
2018-07-06T07:27:56.767Z,18.50
2018-07-06T07:30:25.461Z,18.60
2018-07-06T07:32:53.850Z,18.60
2018-07-06T07:35:22.755Z,18.80
2018-07-06T07:37:51.857Z,18.70
2018-07-06T07:40:21.594Z,18.70
2018-07-06T07:42:52.720Z,18.80
2018-07-06T07:45:21.659Z,19.20
2018-07-06T07:50:23.924Z,19.50
2018-07-06T07:53:04.902Z,19.70
2018-07-06T07:55:33.507Z,19.60
2018-07-06T07:58:02.331Z,19.70
2018-07-06T08:00:31.079Z,19.90
2018-07-06T08:03:00.778Z,19.80
2018-07-06T08:05:29.967Z,19.70
2018-07-06T08:08:00.731Z,19.90
2018-07-06T08:10:33.681Z,20.10
2018-07-06T08:13:03.906Z,20.10
2018-07-06T08:15:34.510Z,20.10
2018-07-06T08:18:02.665Z,20.40
2018-07-06T08:20:32.943Z,20.80
2018-07-06T08:23:02.187Z,20.80
2018-07-06T08:25:31.331Z,20.60
2018-07-06T08:28:01.010Z,20.60
2018-07-06T08:30:31.764Z,20.30
2018-07-06T08:32:59.910Z,20.10
2018-07-06T08:35:39.021Z,19.90
2018-07-06T08:38:07.119Z,19.80
2018-07-06T08:40:35.313Z,19.70
2018-07-06T08:43:04.551Z,19.40
2018-07-06T08:45:33.459Z,19.30
2018-07-06T08:48:02.331Z,19.20
2018-07-06T08:50:30.556Z,19.20
2018-07-06T08:55:27.705Z,19.30
2018-07-06T08:57:56.987Z,19.40
2018-07-06T09:00:25.239Z,19.60
2018-07-06T09:02:53.455Z,19.70
2018-07-06T09:05:21.685Z,19.90
2018-07-06T09:07:50.093Z,20.10
2018-07-06T09:10:19.283Z,20.20
2018-07-06T09:12:47.464Z,20.40
2018-07-06T09:15:15.625Z,20.90
2018-07-06T09:17:44.815Z,21.10
2018-07-06T09:20:12.902Z,21.90
2018-07-06T09:22:41.201Z,22.70
2018-07-06T09:25:09.167Z,23.50
2018-07-06T09:27:37.186Z,24.00
2018-07-06T09:30:05.384Z,24.20
2018-07-06T09:32:34.552Z,24.40
2018-07-06T09:35:02.566Z,24.00
2018-07-06T09:37:30.840Z,23.80
2018-07-06T09:39:59.002Z,23.50
2018-07-06T09:42:27.279Z,23.50
2018-07-06T09:44:55.860Z,23.50
2018-07-06T09:47:24.516Z,23.90
2018-07-06T09:49:53.169Z,23.70
2018-07-06T09:52:21.307Z,23.60
2018-07-06T09:54:49.704Z,23.50
2018-07-06T09:57:18.312Z,23.30
2018-07-06T09:59:46.277Z,23.50
2018-07-06T10:02:15.342Z,23.50
2018-07-06T10:04:43.375Z,23.20
2018-07-06T10:07:11.353Z,23.10
2018-07-06T10:09:39.487Z,23.00
2018-07-06T10:12:07.663Z,23.00
2018-07-06T10:14:35.567Z,23.30
2018-07-06T10:17:03.495Z,23.40
2018-07-06T10:19:31.666Z,23.40
2018-07-06T10:21:59.861Z,23.30
2018-07-06T10:24:49.821Z,23.40
2018-07-06T10:27:17.986Z,23.60
2018-07-06T10:29:59.785Z,23.60
2018-07-06T10:32:30.699Z,23.60
2018-07-06T10:34:59.776Z,23.70
2018-07-06T10:39:57.857Z,24.40
2018-07-06T10:42:26.204Z,24.60
2018-07-06T10:44:55.191Z,24.70
2018-07-06T10:47:23.409Z,24.70
2018-07-06T10:49:51.750Z,24.30
2018-07-06T10:52:19.999Z,24.30
2018-07-06T10:54:48.912Z,24.40
2018-07-06T10:57:16.950Z,24.60
2018-07-06T10:59:45.095Z,25.00
2018-07-06T11:02:13.097Z,25.20
2018-07-06T11:04:41.239Z,25.30
2018-07-06T11:07:09.493Z,25.60
2018-07-06T11:09:37.561Z,25.40
2018-07-06T11:12:06.527Z,25.40
2018-07-06T11:14:34.822Z,25.20
2018-07-06T11:17:02.806Z,24.90
2018-07-06T11:19:31.137Z,24.50
2018-07-06T11:21:59.486Z,24.10
2018-07-06T11:24:27.584Z,24.30
2018-07-06T11:26:55.944Z,24.30
2018-07-06T11:29:24.010Z,24.20
2018-07-06T11:31:52.093Z,24.10
2018-07-06T11:34:20.046Z,23.90
2018-07-06T11:36:48.051Z,24.00
2018-07-06T11:41:47.152Z,24.40
2018-07-06T11:46:43.979Z,25.10
2018-07-06T11:49:16.020Z,25.30
2018-07-06T11:51:44.055Z,25.10
2018-07-06T11:54:12.614Z,25.30
2018-07-06T11:56:40.764Z,25.50
2018-07-06T11:59:08.828Z,25.80
2018-07-06T12:01:36.954Z,25.50
2018-07-06T12:04:04.966Z,25.70
2018-07-06T12:06:32.842Z,25.90
2018-07-06T12:09:00.861Z,26.00
2018-07-06T12:11:28.992Z,25.80
2018-07-06T12:13:57.138Z,25.70
2018-07-06T12:16:25.117Z,25.40
2018-07-06T12:18:53.224Z,25.30
2018-07-06T12:21:21.357Z,25.50
2018-07-06T12:23:49.510Z,25.40
2018-07-06T12:26:17.523Z,25.30
2018-07-06T12:28:45.902Z,25.10
2018-07-06T12:31:14.232Z,24.50
2018-07-06T12:33:43.028Z,24.20
2018-07-06T12:36:20.738Z,24.30
2018-07-06T12:38:48.632Z,24.50
2018-07-06T12:41:17.389Z,24.60
2018-07-06T12:43:45.529Z,24.70
2018-07-06T12:46:13.785Z,24.80
2018-07-06T12:48:41.972Z,24.80
2018-07-06T12:51:10.320Z,24.90
2018-07-06T12:53:38.336Z,24.90
2018-07-06T12:56:06.438Z,24.80
2018-07-06T12:58:34.377Z,24.80
2018-07-06T13:01:02.399Z,24.80
2018-07-06T13:03:31.520Z,24.70
2018-07-06T13:05:59.608Z,24.60
2018-07-06T13:08:27.606Z,24.60
2018-07-06T13:10:55.787Z,24.50
2018-07-06T13:13:24.062Z,24.60
2018-07-06T13:15:52.120Z,24.80
2018-07-06T13:18:23.582Z,25.00
2018-07-06T13:20:51.895Z,25.00
2018-07-06T13:23:19.865Z,25.30
2018-07-06T13:25:47.887Z,25.30
2018-07-06T13:28:15.987Z,25.10
2018-07-06T13:30:43.947Z,25.00
2018-07-06T13:33:12.032Z,24.90
2018-07-06T13:35:40.185Z,24.80
2018-07-06T13:38:08.307Z,24.90
2018-07-06T13:40:36.729Z,25.30
2018-07-06T13:43:05.002Z,25.60
2018-07-06T13:45:33.212Z,25.90
2018-07-06T13:48:01.364Z,26.10
2018-07-06T13:50:29.735Z,26.00
2018-07-06T13:52:57.968Z,26.00
2018-07-06T13:55:26.312Z,25.90
2018-07-06T13:57:54.554Z,26.10
2018-07-06T14:00:22.827Z,26.20
2018-07-06T14:02:50.849Z,26.20
2018-07-06T14:05:18.929Z,26.20
2018-07-06T14:07:47.208Z,25.70
2018-07-06T14:10:15.301Z,25.20
2018-07-06T14:12:43.584Z,24.90
2018-07-06T14:15:11.658Z,24.80
2018-07-06T14:17:39.656Z,24.90
2018-07-06T14:20:07.785Z,25.00
2018-07-06T14:22:36.016Z,25.00
2018-07-06T14:25:04.002Z,25.10
2018-07-06T14:27:32.218Z,25.20
2018-07-06T14:30:00.354Z,25.30
2018-07-06T14:32:28.483Z,25.10
2018-07-06T14:34:56.787Z,24.80
2018-07-06T14:37:25.396Z,25.10
2018-07-06T14:39:53.497Z,25.60
2018-07-06T14:42:21.716Z,26.00
2018-07-06T14:44:49.745Z,26.30
2018-07-06T14:47:17.916Z,26.70
2018-07-06T14:49:45.889Z,27.00
2018-07-06T14:52:13.926Z,26.80
2018-07-06T14:54:48.031Z,26.40
2018-07-06T14:57:16.480Z,25.90
2018-07-06T14:59:44.567Z,25.80
2018-07-06T15:02:12.765Z,25.90
2018-07-06T15:04:40.727Z,26.10
2018-07-06T15:07:08.905Z,26.20
2018-07-06T15:12:05.803Z,26.30
2018-07-06T15:14:34.097Z,26.40
2018-07-06T15:17:03.104Z,26.50
2018-07-06T15:19:32.204Z,26.20
2018-07-06T15:22:00.502Z,26.20
2018-07-06T15:24:29.577Z,26.20
2018-07-06T15:26:57.793Z,26.20
2018-07-06T15:29:26.551Z,26.20
2018-07-06T15:31:55.569Z,26.10
2018-07-06T15:34:24.730Z,26.00
2018-07-06T15:36:53.235Z,25.60
2018-07-06T15:39:21.478Z,25.50
2018-07-06T15:41:49.456Z,25.30
2018-07-06T15:44:17.453Z,25.30
2018-07-06T15:46:45.501Z,25.40
2018-07-06T15:49:13.629Z,25.50
2018-07-06T15:51:41.600Z,25.20
2018-07-06T15:54:09.665Z,25.20
2018-07-06T15:56:37.761Z,25.10
2018-07-06T15:59:11.339Z,25.10
2018-07-06T16:01:39.468Z,25.10
2018-07-06T16:04:07.573Z,25.10
2018-07-06T16:06:35.798Z,25.20
2018-07-06T16:09:04.131Z,25.20
2018-07-06T16:11:32.042Z,25.10
2018-07-06T16:14:00.185Z,25.10
2018-07-06T16:16:28.429Z,25.10
2018-07-06T16:18:56.569Z,25.00
2018-07-06T16:21:24.949Z,25.10
2018-07-06T16:23:53.230Z,25.10
2018-07-06T16:26:21.342Z,25.00
2018-07-06T16:28:49.512Z,25.10
2018-07-06T16:33:45.342Z,25.20
2018-07-06T16:36:13.400Z,25.20
2018-07-06T16:38:41.352Z,25.10
2018-07-06T16:41:09.378Z,25.00
2018-07-06T16:43:37.414Z,24.80
2018-07-06T16:46:05.558Z,24.80
2018-07-06T16:48:33.677Z,24.80
2018-07-06T16:53:30.072Z,24.60
2018-07-06T16:55:58.258Z,24.60
2018-07-06T16:58:26.519Z,24.50
2018-07-06T17:00:54.665Z,24.50
2018-07-06T17:03:23.182Z,24.50
2018-07-06T17:05:51.213Z,24.40
2018-07-06T17:08:19.273Z,24.40
2018-07-06T17:13:15.073Z,24.30
2018-07-06T17:15:43.429Z,24.20
2018-07-06T17:18:11.544Z,24.40
2018-07-06T17:20:39.522Z,24.50
2018-07-06T17:23:07.436Z,24.60
2018-07-06T17:25:35.491Z,24.60
2018-07-06T17:28:03.515Z,24.40
2018-07-06T17:30:31.599Z,24.20
2018-07-06T17:33:00.047Z,24.10
2018-07-06T17:35:28.185Z,23.80
2018-07-06T17:37:56.243Z,23.70
2018-07-06T17:40:24.308Z,23.60
2018-07-06T17:42:52.216Z,23.40
2018-07-06T17:45:20.216Z,23.30
2018-07-06T17:47:48.154Z,23.10
2018-07-06T17:50:16.125Z,23.00
2018-07-06T17:52:44.107Z,22.90
2018-07-06T17:55:12.122Z,22.80
2018-07-06T17:57:53.754Z,22.70
2018-07-06T18:00:21.733Z,22.60
2018-07-06T18:02:49.679Z,22.60
2018-07-06T18:05:17.753Z,22.40
2018-07-06T18:07:45.729Z,22.30
2018-07-06T18:10:13.865Z,22.20
2018-07-06T18:12:42.027Z,22.00
2018-07-06T18:15:10.103Z,21.90
2018-07-06T18:17:38.304Z,21.70
2018-07-06T18:20:06.539Z,21.70
2018-07-06T18:22:35.009Z,21.70
2018-07-06T18:25:03.612Z,21.50
2018-07-06T18:27:31.735Z,21.50
2018-07-06T18:29:59.983Z,21.40
2018-07-06T18:32:31.905Z,21.30
2018-07-06T18:35:00.072Z,21.20
2018-07-06T18:37:28.497Z,21.10
2018-07-06T18:39:56.449Z,21.00
2018-07-06T18:42:24.548Z,20.90
2018-07-06T18:44:52.886Z,20.90
2018-07-06T18:47:20.893Z,20.80
2018-07-06T18:49:48.953Z,20.60
2018-07-06T18:52:17.101Z,20.60
2018-07-06T18:54:46.211Z,20.50
2018-07-06T18:57:14.560Z,20.40
2018-07-06T18:59:42.818Z,20.30
2018-07-06T19:02:11.390Z,20.20
2018-07-06T19:04:39.426Z,20.10
2018-07-06T19:07:08.057Z,20.00
2018-07-06T19:09:36.538Z,20.00
2018-07-06T19:12:06.074Z,19.90
2018-07-06T19:14:34.355Z,19.80
2018-07-06T19:17:02.658Z,19.70
2018-07-06T19:19:32.315Z,19.70
2018-07-06T19:22:16.754Z,19.60
2018-07-06T19:24:44.812Z,19.60
2018-07-06T19:27:12.991Z,19.50
2018-07-06T19:29:41.029Z,19.50
2018-07-06T19:32:09.246Z,19.40
2018-07-06T19:34:37.298Z,19.30
2018-07-06T19:37:05.387Z,19.20
2018-07-06T19:39:34.855Z,19.10
2018-07-06T19:42:03.004Z,19.00
2018-07-06T19:44:31.583Z,19.00
2018-07-06T19:47:00.267Z,18.90
2018-07-06T19:49:29.210Z,18.90
2018-07-06T19:52:00.102Z,18.80
2018-07-06T19:54:30.018Z,18.80
2018-07-06T19:56:59.538Z,18.70
2018-07-06T19:59:28.995Z,18.70
2018-07-06T20:01:58.584Z,18.60
2018-07-06T20:04:27.642Z,18.50
2018-07-06T20:06:56.963Z,18.50
2018-07-06T20:09:28.280Z,18.50
2018-07-06T20:11:58.363Z,18.50
2018-07-06T20:14:27.544Z,18.40
2018-07-06T20:16:58.798Z,18.40
2018-07-06T20:19:29.268Z,18.30
2018-07-06T20:22:01.193Z,18.30
2018-07-06T20:24:31.108Z,18.30
2018-07-06T20:26:59.516Z,18.30
2018-07-06T20:29:29.352Z,18.30
2018-07-06T20:31:58.422Z,18.30
2018-07-06T20:34:27.447Z,18.30
2018-07-06T20:36:56.174Z,18.20
2018-07-06T20:39:25.270Z,18.10
2018-07-06T20:41:54.425Z,18.00
2018-07-06T20:44:22.562Z,18.00
2018-07-06T20:46:50.850Z,17.90
2018-07-06T20:49:19.328Z,17.80
2018-07-06T20:51:47.604Z,17.80
2018-07-06T20:54:15.989Z,17.80
2018-07-06T20:56:44.240Z,17.70
2018-07-06T20:59:12.566Z,17.60
2018-07-06T21:01:40.775Z,17.60
2018-07-06T21:04:09.237Z,17.50
2018-07-06T21:09:05.726Z,17.40
2018-07-06T21:11:33.854Z,17.30
2018-07-06T21:14:02.017Z,17.20
2018-07-06T21:16:30.561Z,17.20
2018-07-06T21:18:59.288Z,17.10
2018-07-06T21:21:28.762Z,17.10
2018-07-06T21:23:57.668Z,17.00
2018-07-06T21:26:49.072Z,17.00
2018-07-06T21:29:17.362Z,16.90
2018-07-06T21:31:45.297Z,16.80
2018-07-06T21:36:41.088Z,16.70
2018-07-06T21:39:09.153Z,16.60
2018-07-06T21:41:37.097Z,16.50
2018-07-06T21:44:05.342Z,16.40
2018-07-06T21:46:33.440Z,16.40
2018-07-06T21:49:01.574Z,16.30
2018-07-06T21:51:35.297Z,16.20
2018-07-06T21:54:03.488Z,16.20
2018-07-06T21:56:33.253Z,16.10
2018-07-06T21:59:02.089Z,16.00
2018-07-06T22:01:30.210Z,16.00
2018-07-06T22:03:58.356Z,15.90
2018-07-06T22:06:27.063Z,15.80
2018-07-06T22:09:01.041Z,15.80
2018-07-06T22:11:32.094Z,15.80
2018-07-06T22:14:02.168Z,15.70
2018-07-06T22:16:34.473Z,15.60
2018-07-06T22:19:02.550Z,15.60
2018-07-06T22:21:30.509Z,15.50
2018-07-06T22:23:59.577Z,15.40
2018-07-06T22:28:55.989Z,15.30
2018-07-06T22:31:24.171Z,15.30
2018-07-06T22:33:52.413Z,15.30
2018-07-06T22:36:20.389Z,15.30
2018-07-06T22:41:16.112Z,15.10
2018-07-06T22:43:44.307Z,15.00
2018-07-06T22:46:12.317Z,14.90
2018-07-06T22:48:40.224Z,14.80
2018-07-06T22:51:08.292Z,14.80
2018-07-06T22:53:36.278Z,14.70
2018-07-06T22:56:04.239Z,14.70
2018-07-06T22:58:32.335Z,14.70
2018-07-06T23:01:00.383Z,14.60
2018-07-06T23:03:28.703Z,14.50
2018-07-06T23:05:56.872Z,14.50
2018-07-06T23:08:24.955Z,14.40
2018-07-06T23:10:53.049Z,14.40
2018-07-06T23:13:21.049Z,14.40
2018-07-06T23:15:48.981Z,14.40
2018-07-06T23:18:16.942Z,14.30
2018-07-06T23:20:45.992Z,14.20
2018-07-06T23:23:14.341Z,14.20
2018-07-06T23:25:44.336Z,14.20
2018-07-06T23:28:12.520Z,14.20
2018-07-06T23:30:40.537Z,14.20
2018-07-06T23:33:09.183Z,14.20
2018-07-06T23:35:37.238Z,14.20
2018-07-06T23:38:05.405Z,14.20
2018-07-06T23:40:33.555Z,14.10
2018-07-06T23:43:09.698Z,14.00
2018-07-06T23:45:37.773Z,13.90
2018-07-06T23:48:05.746Z,13.80
2018-07-06T23:50:39.634Z,13.80
2018-07-06T23:53:07.601Z,13.70
2018-07-06T23:55:35.597Z,13.70
2018-07-06T23:58:03.649Z,13.70
